Time;durP1;ratioP1;P1;durP2;ratioP2;P2;SDS_P1;SDS_P2;PMS_P1;PMS_P2;Temp;Humidity;BMP_temperature;BMP_pressure;BME280_temperature;BME280_humidity;BME280_pressure;Samples;Min_cycle;Max_cycle;Signal;HPM_P1;HPM_P2
2021/07/06 04:01:20;;;;;;;4.00;3.90;;;18.20;99.90;;;;;;5626417;22;20655;-68
2021/07/06 04:03:47;;;;;;;3.80;3.70;;;18.20;99.90;;;;;;4991615;28;20466;-69
2021/07/06 04:06:13;;;;;;;3.90;3.70;;;18.20;99.90;;;;;;4990854;28;20475;-68
2021/07/06 04:08:40;;;;;;;4.07;3.77;;;18.30;99.90;;;;;;4974418;28;20499;-68
2021/07/06 04:11:07;;;;;;;3.60;3.50;;;18.30;99.90;;;;;;4981296;28;20539;-68
2021/07/06 04:13:34;;;;;;;4.20;4.00;;;18.30;99.90;;;;;;4956643;28;20460;-68
2021/07/06 04:16:00;;;;;;;3.43;3.33;;;18.40;99.90;;;;;;4972098;28;20460;-68
2021/07/06 04:18:28;;;;;;;3.80;3.60;;;18.40;99.90;;;;;;4957769;28;20464;-68
2021/07/06 04:20:55;;;;;;;4.40;4.00;;;18.50;99.90;;;;;;4965955;28;20476;-69
2021/07/06 04:23:22;;;;;;;4.17;3.97;;;18.50;99.90;;;;;;4953285;29;20872;-69
2021/07/06 04:25:48;;;;;;;3.93;3.73;;;18.50;99.90;;;;;;4965957;28;20862;-69
2021/07/06 04:28:15;;;;;;;3.20;3.10;;;18.50;99.90;;;;;;4954135;29;20500;-69
2021/07/06 04:30:42;;;;;;;4.23;3.90;;;18.50;99.90;;;;;;4966064;28;20492;-69
2021/07/06 04:33:09;;;;;;;4.40;3.87;;;18.50;99.90;;;;;;4953104;29;20469;-69
2021/07/06 04:35:37;;;;;;;4.63;4.33;;;18.50;99.90;;;;;;4965213;28;20459;-69
2021/07/06 04:38:04;;;;;;;4.10;3.90;;;18.50;99.90;;;;;;4953768;29;20468;-69
2021/07/06 04:40:30;;;;;;;3.90;3.70;;;18.60;99.90;;;;;;4965794;28;20546;-69
2021/07/06 04:42:57;;;;;;;4.33;4.13;;;18.60;99.90;;;;;;4953549;28;20785;-69
2021/07/06 04:45:24;;;;;;;3.80;3.70;;;18.60;99.90;;;;;;4964178;28;20799;-69
2021/07/06 04:47:50;;;;;;;3.70;3.60;;;18.60;99.90;;;;;;4954848;28;21264;-69
2021/07/06 04:50:18;;;;;;;4.20;4.00;;;18.70;99.90;;;;;;4962192;28;20599;-70
2021/07/06 04:52:47;;;;;;;3.90;3.80;;;18.80;99.90;;;;;;4958812;28;20461;-69
2021/07/06 04:55:15;;;;;;;3.53;3.47;;;19.10;99.90;;;;;;4964495;28;21018;-69
2021/07/06 04:57:41;;;;;;;4.20;3.90;;;19.50;99.90;;;;;;4969552;28;20463;-70
2021/07/06 05:00:10;;;;;;;3.37;3.27;;;20.20;99.90;;;;;;4966166;28;20468;-71
2021/07/06 05:02:37;;;;;;;3.53;3.43;;;20.80;99.90;;;;;;4956041;28;20469;-71
2021/07/06 05:05:05;;;;;;;3.13;3.13;;;21.20;99.90;;;;;;4958329;28;20988;-70
2021/07/06 05:07:33;;;;;;;2.77;2.77;;;21.40;99.90;;;;;;4968859;28;20976;-70
2021/07/06 05:10:01;;;;;;;3.40;3.30;;;21.40;99.90;;;;;;4964459;28;20490;-70
2021/07/06 05:12:28;;;;;;;3.30;3.13;;;21.50;99.90;;;;;;4963625;28;20480;-69
2021/07/06 05:14:54;;;;;;;3.87;3.77;;;21.30;99.90;;;;;;4959505;28;20468;-70
2021/07/06 05:17:21;;;;;;;3.37;3.20;;;21.30;99.90;;;;;;4964874;28;20472;-69
2021/07/06 05:19:48;;;;;;;3.30;3.20;;;21.20;99.90;;;;;;4957707;28;20468;-69
2021/07/06 05:22:14;;;;;;;2.77;2.67;;;21.70;99.90;;;;;;4962476;28;20532;-69
2021/07/06 05:24:41;;;;;;;2.73;2.73;;;22.40;99.90;;;;;;4957069;28;20530;-69
2021/07/06 05:27:09;;;;;;;5.63;3.00;;;22.90;99.90;;;;;;4963358;28;20465;-70
2021/07/06 05:29:36;;;;;;;3.20;3.00;;;23.30;99.90;;;;;;4955984;29;20492;-69
2021/07/06 05:32:03;;;;;;;2.73;2.63;;;23.70;99.90;;;;;;4966249;28;21008;-71
2021/07/06 05:34:30;;;;;;;2.67;2.47;;;24.40;99.90;;;;;;4973686;28;20936;-69
2021/07/06 05:36:56;;;;;;;2.50;2.40;;;24.80;99.90;;;;;;4967499;28;20469;-69
2021/07/06 05:39:24;;;;;;;3.00;2.80;;;25.00;99.90;;;;;;4958524;28;20495;-69
2021/07/06 05:41:50;;;;;;;2.60;2.50;;;25.10;99.90;;;;;;4956478;29;20485;-68
2021/07/06 05:44:19;;;;;;;3.13;2.20;;;24.90;99.90;;;;;;4964652;28;20472;-69
2021/07/06 05:46:46;;;;;;;2.20;2.10;;;25.10;99.90;;;;;;4955918;28;20473;-69
2021/07/06 05:49:12;;;;;;;2.00;1.90;;;24.80;99.90;;;;;;4964175;28;20490;-68
2021/07/06 05:51:39;;;;;;;1.97;1.97;;;24.40;99.90;;;;;;4955715;29;20511;-68
2021/07/06 05:54:06;;;;;;;2.10;1.97;;;24.00;99.90;;;;;;4962740;28;21245;-68
2021/07/06 05:56:33;;;;;;;2.13;2.13;;;23.60;99.90;;;;;;4974964;28;20519;-68
2021/07/06 05:59:00;;;;;;;3.13;2.10;;;23.40;99.90;;;;;;4964466;28;20456;-69
2021/07/06 06:01:30;;;;;;;2.10;2.10;;;23.20;99.90;;;;;;4973072;28;20797;-68
2021/07/06 06:03:57;;;;;;;2.03;2.03;;;23.30;99.90;;;;;;4971361;28;20496;-69
2021/07/06 06:06:24;;;;;;;2.53;2.40;;;23.30;99.90;;;;;;4965912;28;20973;-68
2021/07/06 06:08:50;;;;;;;1.70;1.70;;;23.50;99.90;;;;;;4973572;28;20500;-69
2021/07/06 06:11:17;;;;;;;1.77;1.77;;;23.50;99.90;;;;;;4961409;28;20484;-69
2021/07/06 06:13:44;;;;;;;2.07;1.97;;;23.50;99.90;;;;;;4958195;28;20506;-69
2021/07/06 06:16:10;;;;;;;1.80;1.70;;;23.20;99.90;;;;;;4955802;28;20468;-69
2021/07/06 06:18:38;;;;;;;1.60;1.60;;;22.80;99.90;;;;;;4955964;28;20473;-70
2021/07/06 06:21:05;;;;;;;2.40;2.30;;;22.50;99.90;;;;;;4973579;28;21093;-68
2021/07/06 06:23:32;;;;;;;1.70;1.57;;;22.50;99.90;;;;;;4972833;28;20463;-69
2021/07/06 06:25:59;;;;;;;1.80;1.80;;;23.10;99.90;;;;;;4955548;28;20933;-70
2021/07/06 06:28:27;;;;;;;1.90;1.90;;;24.10;99.90;;;;;;4955425;28;20477;-72
2021/07/06 06:30:54;;;;;;;2.63;1.60;;;25.10;99.90;;;;;;4968271;28;20900;-69
2021/07/06 06:33:21;;;;;;;1.50;1.50;;;26.00;99.90;;;;;;4969523;28;20553;-69
2021/07/06 06:35:49;;;;;;;1.20;1.20;;;26.50;99.90;;;;;;4962056;28;20468;-70
2021/07/06 06:38:15;;;;;;;1.63;1.63;;;26.40;99.90;;;;;;4956120;28;20458;-69
2021/07/06 06:40:42;;;;;;;2.03;1.77;;;25.80;99.90;;;;;;4971089;28;20483;-69
2021/07/06 06:43:09;;;;;;;1.63;1.53;;;25.10;99.90;;;;;;4962492;28;21030;-69
2021/07/06 06:45:35;;;;;;;2.47;1.70;;;24.70;99.90;;;;;;4962598;28;20469;-70
2021/07/06 06:48:02;;;;;;;1.93;1.80;;;24.30;99.90;;;;;;4958923;28;20877;-72
2021/07/06 06:50:29;;;;;;;1.60;1.60;;;23.90;99.90;;;;;;4959929;28;20507;-69
2021/07/06 06:52:57;;;;;;;3.13;1.77;;;23.80;99.90;;;;;;4965090;28;20520;-69
2021/07/06 06:55:23;;;;;;;1.70;1.70;;;23.60;99.90;;;;;;4956725;28;20467;-69
2021/07/06 06:57:50;;;;;;;1.87;1.77;;;23.70;99.90;;;;;;4965127;28;20472;-69
2021/07/06 07:00:17;;;;;;;1.33;1.33;;;24.70;99.90;;;;;;4966686;28;20464;-68
2021/07/06 07:02:44;;;;;;;1.50;1.40;;;25.80;99.90;;;;;;4966159;28;20471;-68
2021/07/06 07:05:12;;;;;;;1.70;1.60;;;26.80;99.90;;;;;;4963014;28;20958;-68
2021/07/06 07:07:39;;;;;;;1.20;1.10;;;27.50;99.90;;;;;;4957193;28;20502;-69
2021/07/06 07:10:08;;;;;;;1.33;1.33;;;27.40;99.90;;;;;;4969957;28;20483;-68
2021/07/06 07:12:36;;;;;;;1.70;1.60;;;27.30;99.90;;;;;;4967984;28;20476;-68
2021/07/06 07:15:03;;;;;;;3.50;1.57;;;27.20;99.90;;;;;;4960105;28;20920;-68
2021/07/06 07:17:30;;;;;;;3.60;1.20;;;27.40;99.90;;;;;;4972710;28;20515;-69
2021/07/06 07:19:56;;;;;;;1.17;1.17;;;27.80;99.90;;;;;;4966525;28;20458;-68
2021/07/06 07:22:23;;;;;;;1.63;1.10;;;28.10;99.90;;;;;;4953932;28;20552;-69
2021/07/06 07:24:50;;;;;;;1.20;1.20;;;27.40;99.90;;;;;;4958502;28;20466;-68
2021/07/06 07:27:18;;;;;;;1.30;1.30;;;27.10;99.90;;;;;;4973885;28;20471;-68
2021/07/06 07:29:44;;;;;;;1.30;1.30;;;26.90;99.90;;;;;;4969402;28;20501;-68
2021/07/06 07:32:12;;;;;;;1.70;1.40;;;26.80;99.90;;;;;;4955281;28;20477;-68
2021/07/06 07:34:39;;;;;;;1.50;1.50;;;27.30;99.90;;;;;;4961617;28;20595;-68
2021/07/06 07:37:06;;;;;;;1.40;1.40;;;27.90;99.90;;;;;;4974042;28;20518;-68
2021/07/06 07:39:33;;;;;;;1.70;1.60;;;28.40;99.90;;;;;;4956640;28;20966;-68
2021/07/06 07:42:02;;;;;;;1.03;1.03;;;28.70;99.90;;;;;;4954702;29;20491;-68
2021/07/06 07:44:30;;;;;;;1.43;1.43;;;28.60;99.90;;;;;;4958472;28;20930;-68
2021/07/06 07:46:57;;;;;;;1.13;1.13;;;28.20;99.90;;;;;;4954298;29;20473;-67
2021/07/06 07:49:24;;;;;;;1.30;1.30;;;27.90;99.90;;;;;;4964672;28;20481;-68
2021/07/06 07:51:50;;;;;;;1.47;1.47;;;28.00;99.90;;;;;;4969152;28;20543;-68
2021/07/06 07:54:17;;;;;;;1.70;1.63;;;28.40;99.90;;;;;;4963518;28;20469;-69
2021/07/06 07:56:43;;;;;;;1.40;1.40;;;29.00;99.90;;;;;;4963067;28;20470;-68
2021/07/06 07:59:10;;;;;;;1.70;1.70;;;29.20;99.90;;;;;;4971542;28;20950;-68
2021/07/06 08:01:38;;;;;;;1.70;1.20;;;29.20;99.90;;;;;;4966059;28;20872;-68
2021/07/06 08:04:05;;;;;;;1.20;1.20;;;29.40;99.90;;;;;;4958102;28;20465;-70
2021/07/06 08:06:32;;;;;;;1.23;1.23;;;29.50;99.90;;;;;;4967771;28;20475;-68
2021/07/06 08:08:59;;;;;;;3.17;1.93;;;29.60;99.90;;;;;;4968546;28;20833;-68
2021/07/06 08:11:25;;;;;;;1.33;1.33;;;29.40;99.90;;;;;;4964287;28;20509;-68
2021/07/06 08:13:52;;;;;;;1.23;1.20;;;29.40;99.90;;;;;;4961244;28;20832;-68
2021/07/06 08:16:19;;;;;;;1.47;1.20;;;29.40;99.90;;;;;;4963177;28;20513;-69
2021/07/06 08:18:47;;;;;;;1.50;1.40;;;29.50;99.90;;;;;;4968414;28;20459;-68
2021/07/06 08:21:13;;;;;;;1.27;1.27;;;29.30;99.90;;;;;;4967949;28;20486;-68
2021/07/06 08:23:40;;;;;;;2.50;1.67;;;29.50;99.90;;;;;;4961540;28;20493;-68
2021/07/06 08:26:07;;;;;;;1.13;1.13;;;29.30;99.90;;;;;;4957114;28;20616;-70
2021/07/06 08:28:34;;;;;;;1.07;1.07;;;29.70;99.90;;;;;;4959004;28;20463;-69
2021/07/06 08:31:00;;;;;;;1.20;1.20;;;30.00;99.90;;;;;;4955904;28;20495;-69
2021/07/06 08:33:27;;;;;;;1.27;1.23;;;29.80;99.90;;;;;;4962927;28;20467;-68
2021/07/06 08:35:55;;;;;;;1.53;1.53;;;29.80;99.90;;;;;;4961776;28;20550;-68
2021/07/06 08:38:22;;;;;;;1.10;1.00;;;29.80;99.90;;;;;;4962219;28;20538;-69
2021/07/06 08:40:50;;;;;;;2.10;1.53;;;29.60;99.90;;;;;;4955804;28;20487;-69
2021/07/06 08:43:18;;;;;;;1.60;1.60;;;29.40;99.90;;;;;;4959725;28;20470;-68
2021/07/06 08:45:45;;;;;;;1.33;1.33;;;29.30;99.90;;;;;;4961885;28;20518;-68
2021/07/06 08:48:13;;;;;;;1.27;1.20;;;29.40;99.90;;;;;;4956656;29;20468;-68
2021/07/06 08:50:40;;;;;;;2.20;2.20;;;29.10;99.90;;;;;;4963611;28;20548;-68
2021/07/06 08:53:08;;;;;;;1.60;1.50;;;28.80;99.90;;;;;;4963391;28;20466;-68
2021/07/06 08:55:35;;;;;;;1.27;1.27;;;28.60;99.90;;;;;;4958456;28;20461;-68
2021/07/06 08:58:02;;;;;;;1.47;1.40;;;28.50;99.90;;;;;;4974987;28;20465;-67
2021/07/06 09:00:30;;;;;;;1.53;1.53;;;28.40;99.90;;;;;;4970454;28;20843;-68
2021/07/06 09:03:01;;;;;;;1.50;1.50;;;28.20;99.90;;;;;;4968381;28;20477;-68
2021/07/06 09:05:30;;;;;;;2.30;1.70;;;28.40;99.90;;;;;;4973809;28;20474;-67
2021/07/06 09:07:57;;;;;;;1.30;1.30;;;28.40;99.90;;;;;;4960951;28;20514;-70
2021/07/06 09:10:28;;;;;;;1.50;1.40;;;28.20;99.90;;;;;;4956561;28;20488;-69
2021/07/06 09:12:55;;;;;;;1.50;1.40;;;28.10;99.90;;;;;;4971254;28;20475;-69
2021/07/06 09:15:24;;;;;;;1.47;1.37;;;28.30;99.90;;;;;;4975620;28;20955;-69
2021/07/06 09:18:08;;;;;;;2.00;1.50;;;28.40;99.90;;;;;;4960474;28;20520;-69
2021/07/06 09:20:36;;;;;;;1.43;1.43;;;28.10;99.90;;;;;;4970700;28;20478;-68
2021/07/06 09:23:26;;;;;;;1.57;1.47;;;28.00;99.90;;;;;;4961224;28;20473;-69
2021/07/06 09:26:09;;;;;;;1.70;1.40;;;27.90;99.90;;;;;;4969961;28;20464;-69
2021/07/06 09:28:39;;;;;;;1.20;1.10;;;27.60;99.90;;;;;;4975510;28;20462;-68
2021/07/06 09:31:17;;;;;;;1.43;1.30;;;27.20;99.90;;;;;;4958928;28;20490;-70
2021/07/06 09:33:51;;;;;;;1.30;1.30;;;27.00;99.90;;;;;;4955139;29;20469;-69
2021/07/06 09:36:26;;;;;;;1.50;1.40;;;26.80;99.90;;;;;;4968469;28;20473;-69
2021/07/06 09:39:06;;;;;;;1.30;1.30;;;26.60;99.90;;;;;;4962099;28;20472;-69
2021/07/06 09:41:35;;;;;;;2.00;1.70;;;26.60;99.90;;;;;;4974908;28;20479;-69
2021/07/06 09:44:21;;;;;;;1.40;1.40;;;26.50;99.90;;;;;;4974238;28;20459;-69
2021/07/06 09:46:50;;;;;;;1.43;1.43;;;26.60;99.90;;;;;;4975275;28;20475;-69
2021/07/06 09:49:18;;;;;;;2.03;1.93;;;26.90;99.90;;;;;;4967155;28;20490;-68
2021/07/06 09:51:45;;;;;;;1.53;1.53;;;26.90;99.90;;;;;;4970272;28;20496;-70
2021/07/06 09:54:24;;;;;;;1.70;1.70;;;27.00;99.90;;;;;;4974948;28;20464;-70
2021/07/06 09:56:53;;;;;;;1.33;1.33;;;27.10;99.90;;;;;;4973553;28;20465;-71
2021/07/06 09:59:22;;;;;;;1.90;1.50;;;27.20;99.90;;;;;;4955447;28;20508;-69
2021/07/06 10:01:54;;;;;;;1.73;1.73;;;27.20;99.90;;;;;;4970098;28;20488;-69
2021/07/06 10:04:23;;;;;;;1.30;1.30;;;27.30;99.90;;;;;;4957724;28;20466;-68
2021/07/06 10:06:50;;;;;;;1.47;1.47;;;27.30;99.90;;;;;;4973991;28;20473;-70
2021/07/06 10:09:17;;;;;;;1.60;1.50;;;27.50;99.90;;;;;;4974475;28;20470;-69
2021/07/06 10:11:44;;;;;;;1.43;1.43;;;27.50;99.90;;;;;;4958242;28;20813;-69
2021/07/06 10:14:13;;;;;;;1.50;1.50;;;27.50;99.90;;;;;;4974768;28;20519;-70
2021/07/06 10:16:40;;;;;;;1.50;1.50;;;27.50;99.90;;;;;;4969537;28;20845;-70
2021/07/06 10:19:08;;;;;;;1.60;1.30;;;27.70;99.90;;;;;;4969673;28;20485;-70
2021/07/06 10:21:36;;;;;;;1.80;1.80;;;27.70;99.90;;;;;;4974826;28;20556;-71
2021/07/06 10:24:04;;;;;;;1.60;1.60;;;27.70;99.90;;;;;;4974162;28;20471;-70
2021/07/06 10:26:34;;;;;;;1.40;1.30;;;27.70;99.90;;;;;;4975266;28;20773;-71
2021/07/06 10:29:02;;;;;;;1.53;1.37;;;27.60;99.90;;;;;;4972310;28;20918;-70
2021/07/06 10:31:31;;;;;;;1.33;1.33;;;27.60;99.90;;;;;;4973416;28;20586;-70
2021/07/06 10:33:58;;;;;;;1.47;1.47;;;27.60;99.90;;;;;;4959286;28;20471;-71
2021/07/06 10:36:42;;;;;;;1.50;1.50;;;27.70;99.90;;;;;;4965362;28;20526;-71
2021/07/06 10:39:10;;;;;;;1.70;1.60;;;27.60;99.90;;;;;;4953736;29;20977;-71
2021/07/06 10:41:54;;;;;;;1.20;1.20;;;27.40;99.90;;;;;;4965060;28;20470;-71
2021/07/06 10:44:32;;;;;;;1.83;1.47;;;27.00;99.90;;;;;;4968470;28;20456;-69
2021/07/06 10:47:00;;;;;;;1.33;1.33;;;26.90;99.90;;;;;;4964648;28;20473;-71
2021/07/06 10:49:30;;;;;;;2.63;1.53;;;26.90;99.90;;;;;;4959592;28;20461;-70
2021/07/06 10:51:57;;;;;;;1.43;1.33;;;26.90;99.90;;;;;;4959756;28;20509;-68
2021/07/06 10:54:29;;;;;;;1.53;1.40;;;26.80;99.90;;;;;;4971360;28;20826;-70
2021/07/06 10:56:59;;;;;;;2.50;1.40;;;26.80;99.90;;;;;;4973265;28;20465;-69
2021/07/06 10:59:27;;;;;;;1.57;1.57;;;26.70;99.90;;;;;;4974147;28;20456;-69
2021/07/06 11:02:00;;;;;;;1.40;1.40;;;26.50;99.90;;;;;;4957534;28;20496;-69
2021/07/06 11:05:10;;;;;;;2.80;1.60;;;26.40;99.90;;;;;;4965508;28;20468;-68
2021/07/06 11:07:57;;;;;;;2.23;1.57;;;26.30;99.90;;;;;;4970471;28;20947;-69
2021/07/06 11:10:36;;;;;;;1.80;1.47;;;26.20;99.90;;;;;;4959636;28;20574;-69
2021/07/06 11:13:20;;;;;;;3.43;1.67;;;26.30;99.90;;;;;;4970113;28;20478;-69
2021/07/06 11:15:47;;;;;;;1.40;1.40;;;26.30;99.90;;;;;;4972099;28;20542;-69
2021/07/06 11:18:15;;;;;;;1.73;1.63;;;26.40;99.90;;;;;;4964171;28;20461;-70
2021/07/06 11:20:44;;;;;;;2.00;1.60;;;26.30;99.90;;;;;;4974325;28;21196;-69
2021/07/06 11:23:16;;;;;;;1.63;1.53;;;26.20;99.90;;;;;;4975893;28;21012;-71
2021/07/06 11:25:47;;;;;;;1.63;1.63;;;26.00;99.90;;;;;;4960068;28;20861;-70
2021/07/06 11:28:18;;;;;;;2.53;1.53;;;25.80;99.90;;;;;;4977004;28;20486;-70
2021/07/06 11:30:48;;;;;;;2.30;2.10;;;25.70;99.90;;;;;;4973299;28;20519;-70
2021/07/06 11:33:18;;;;;;;1.50;1.50;;;25.60;99.90;;;;;;4960469;28;20629;-70
2021/07/06 11:35:46;;;;;;;1.80;1.80;;;25.50;99.90;;;;;;4974011;28;20745;-71
2021/07/06 11:38:15;;;;;;;1.43;1.43;;;25.40;99.90;;;;;;4972760;28;20464;-70
2021/07/06 11:40:44;;;;;;;1.27;1.27;;;25.30;99.90;;;;;;4968146;28;20481;-70
2021/07/06 11:43:14;;;;;;;1.30;1.30;;;25.30;99.90;;;;;;4972868;28;20867;-69
2021/07/06 11:45:41;;;;;;;1.53;1.53;;;25.30;99.90;;;;;;4972523;28;20471;-69
2021/07/06 11:48:13;;;;;;;1.90;1.90;;;25.20;99.90;;;;;;4973208;28;20467;-70
2021/07/06 11:50:43;;;;;;;1.90;1.90;;;25.00;99.90;;;;;;4969475;28;20496;-70
2021/07/06 11:53:11;;;;;;;1.70;1.70;;;25.00;99.90;;;;;;4972761;28;20462;-69
2021/07/06 11:55:39;;;;;;;1.77;1.77;;;24.90;99.90;;;;;;4973422;28;20459;-69
2021/07/06 11:58:09;;;;;;;2.20;2.07;;;24.90;99.90;;;;;;4967472;28;20836;-70
2021/07/06 12:00:38;;;;;;;3.33;2.07;;;24.80;99.90;;;;;;4972870;28;20475;-70
2021/07/06 12:03:14;;;;;;;2.10;2.10;;;24.60;99.90;;;;;;4969857;28;20500;-70
2021/07/06 12:05:42;;;;;;;2.20;1.90;;;24.50;99.90;;;;;;4963210;28;20460;-69
2021/07/06 12:08:18;;;;;;;2.20;2.20;;;24.40;99.90;;;;;;4975381;28;20496;-70
2021/07/06 12:10:56;;;;;;;1.90;1.90;;;24.30;99.90;;;;;;4974703;28;20487;-70
2021/07/06 12:13:23;;;;;;;2.30;2.20;;;24.00;99.90;;;;;;4970826;28;20491;-70
2021/07/06 12:15:52;;;;;;;5.40;2.23;;;23.70;99.90;;;;;;4972477;28;20518;-68
2021/07/06 12:18:19;;;;;;;2.30;2.20;;;23.60;99.90;;;;;;4976727;28;20467;-70
2021/07/06 12:20:56;;;;;;;2.80;2.70;;;23.40;99.90;;;;;;4975374;28;20480;-70
2021/07/06 12:23:23;;;;;;;3.37;3.13;;;23.10;99.90;;;;;;4975619;28;20507;-70
2021/07/06 12:25:50;;;;;;;3.10;2.80;;;22.70;99.90;;;;;;4974483;28;20460;-70
2021/07/06 12:28:19;;;;;;;3.07;2.83;;;22.20;99.90;;;;;;4974662;28;20461;-70
2021/07/06 12:31:23;;;;;;;2.80;2.70;;;21.70;99.90;;;;;;4965450;28;20583;-70
2021/07/06 12:34:02;;;;;;;3.27;3.03;;;21.40;99.90;;;;;;4963351;28;20459;-69
2021/07/06 12:36:31;;;;;;;2.30;2.20;;;21.20;99.90;;;;;;4957530;28;20460;-70
2021/07/06 12:39:18;;;;;;;3.87;3.70;;;21.10;99.90;;;;;;4964713;28;20942;-69
2021/07/06 12:41:48;;;;;;;4.00;2.00;;;21.10;99.90;;;;;;4961334;28;20871;-69
2021/07/06 12:44:19;;;;;;;2.40;2.40;;;21.10;99.90;;;;;;4963902;28;20990;-69
2021/07/06 12:46:46;;;;;;;2.30;2.07;;;20.90;99.90;;;;;;4966091;28;20500;-69
2021/07/06 12:49:23;;;;;;;2.70;2.53;;;20.80;99.90;;;;;;4974043;28;20512;-70
2021/07/06 12:52:00;;;;;;;4.50;2.70;;;20.70;99.90;;;;;;4956340;29;20499;-68
2021/07/06 12:54:32;;;;;;;2.60;2.40;;;20.70;99.90;;;;;;4956405;28;20460;-70
2021/07/06 12:56:59;;;;;;;2.20;2.10;;;20.60;99.90;;;;;;4957972;29;20456;-70
2021/07/06 12:59:30;;;;;;;2.23;2.13;;;20.70;99.90;;;;;;4965800;28;20882;-69
2021/07/06 13:01:58;;;;;;;2.07;2.07;;;20.70;99.90;;;;;;4976732;28;20495;-69
2021/07/06 13:04:52;;;;;;;2.20;2.03;;;20.70;99.90;;;;;;4974311;28;20543;-67
2021/07/06 13:07:22;;;;;;;1.90;1.90;;;20.60;99.90;;;;;;4967293;28;20449;-67
2021/07/06 13:10:01;;;;;;;2.77;2.40;;;20.60;99.90;;;;;;4973473;28;20944;-67
2021/07/06 13:12:28;;;;;;;2.93;2.33;;;20.50;99.90;;;;;;4973504;28;20483;-67
2021/07/06 13:14:55;;;;;;;7.50;2.87;;;20.60;99.90;;;;;;4962999;28;20543;-68
2021/07/06 13:17:22;;;;;;;2.50;2.30;;;20.70;99.90;;;;;;4964741;28;20530;-67
2021/07/06 13:19:59;;;;;;;2.80;2.70;;;20.70;99.90;;;;;;4974594;28;20474;-67
2021/07/06 13:22:27;;;;;;;1.90;1.80;;;20.70;99.90;;;;;;4971376;28;20487;-68
2021/07/06 13:24:54;;;;;;;2.10;2.10;;;20.80;99.90;;;;;;4972094;28;20837;-68
2021/07/06 13:27:20;;;;;;;2.30;2.23;;;20.90;99.90;;;;;;4959844;28;20476;-67
2021/07/06 13:29:47;;;;;;;2.27;2.17;;;21.10;99.90;;;;;;4959878;28;20460;-67
2021/07/06 13:32:14;;;;;;;1.83;1.83;;;21.20;99.90;;;;;;4955947;29;21028;-69
2021/07/06 13:34:40;;;;;;;2.40;2.30;;;21.50;99.90;;;;;;4955096;29;20504;-67
2021/07/06 13:37:10;;;;;;;2.57;2.37;;;21.70;99.90;;;;;;4964795;28;20901;-67
2021/07/06 13:39:38;;;;;;;2.67;2.67;;;21.90;99.90;;;;;;4973740;28;20468;-68
2021/07/06 13:42:05;;;;;;;3.57;3.10;;;22.00;99.90;;;;;;4973832;28;20856;-68
2021/07/06 13:44:33;;;;;;;2.70;2.60;;;22.00;99.90;;;;;;4975402;28;20542;-67
2021/07/06 13:47:00;;;;;;;2.67;2.57;;;22.10;99.90;;;;;;4975525;28;20467;-68
2021/07/06 13:49:27;;;;;;;2.10;2.10;;;22.30;99.90;;;;;;4974444;28;21016;-67
2021/07/06 13:51:58;;;;;;;2.03;1.93;;;22.60;99.90;;;;;;4975791;28;20491;-68
2021/07/06 13:54:25;;;;;;;2.27;2.17;;;22.80;99.90;;;;;;4964774;28;20480;-67
2021/07/06 13:56:53;;;;;;;1.63;1.43;;;23.00;99.90;;;;;;4976369;28;20526;-68
2021/07/06 13:59:19;;;;;;;2.03;2.03;;;22.90;99.90;;;;;;4975181;28;20562;-68
2021/07/06 14:01:46;;;;;;;2.63;2.53;;;23.00;99.90;;;;;;4975110;28;20498;-67
2021/07/06 14:04:13;;;;;;;2.40;2.30;;;23.20;99.90;;;;;;4974374;28;20463;-70
2021/07/06 14:06:39;;;;;;;1.73;1.70;;;23.40;99.90;;;;;;4974943;28;20550;-70
2021/07/06 14:09:06;;;;;;;2.67;2.10;;;23.60;99.90;;;;;;4973994;28;20512;-69
2021/07/06 14:11:33;;;;;;;3.80;1.90;;;23.50;99.90;;;;;;4975055;28;20487;-69
2021/07/06 14:14:01;;;;;;;2.33;2.20;;;23.40;99.90;;;;;;4971356;28;20812;-69
2021/07/06 14:16:27;;;;;;;2.20;2.20;;;23.40;99.90;;;;;;4975371;28;20507;-68
2021/07/06 14:18:54;;;;;;;2.03;1.97;;;23.60;99.90;;;;;;4973792;28;20918;-68
2021/07/06 14:21:21;;;;;;;1.73;1.63;;;23.70;99.90;;;;;;4974642;28;20896;-68
2021/07/06 14:23:47;;;;;;;2.57;2.30;;;23.70;99.90;;;;;;4958221;28;20568;-69
2021/07/06 14:26:14;;;;;;;2.00;2.00;;;23.70;99.90;;;;;;4955655;29;20468;-68
2021/07/06 14:28:48;;;;;;;1.80;1.80;;;23.90;99.90;;;;;;4955419;29;20468;-68
2021/07/06 14:31:17;;;;;;;2.03;1.80;;;23.90;99.90;;;;;;4954910;28;21051;-68
2021/07/06 14:33:44;;;;;;;1.57;1.57;;;24.10;99.90;;;;;;4954772;29;20465;-68
2021/07/06 14:36:11;;;;;;;2.00;2.00;;;24.10;99.90;;;;;;4955082;29;20858;-69
2021/07/06 14:38:37;;;;;;;1.80;1.80;;;24.10;99.90;;;;;;4956038;28;20464;-69
2021/07/06 14:41:04;;;;;;;1.77;1.70;;;24.20;99.90;;;;;;4955190;29;20605;-69
2021/07/06 14:43:32;;;;;;;2.03;1.93;;;24.30;99.90;;;;;;4954713;29;20519;-69
2021/07/06 14:45:58;;;;;;;1.50;1.40;;;24.30;99.90;;;;;;4955000;28;20465;-69
2021/07/06 14:48:26;;;;;;;1.60;1.50;;;24.30;99.90;;;;;;4959710;28;20483;-68
2021/07/06 14:50:53;;;;;;;1.80;1.70;;;24.30;99.90;;;;;;4962648;28;20591;-68
2021/07/06 14:53:20;;;;;;;1.80;1.80;;;24.30;99.90;;;;;;4961111;28;20495;-69
2021/07/06 14:55:47;;;;;;;1.20;1.20;;;24.40;99.90;;;;;;4955350;28;20461;-69
2021/07/06 14:58:14;;;;;;;1.43;1.37;;;24.30;99.90;;;;;;4968639;28;20510;-69
2021/07/06 15:00:40;;;;;;;1.57;1.43;;;24.30;99.90;;;;;;4971122;28;20500;-68
2021/07/06 15:03:08;;;;;;;1.53;1.53;;;24.20;99.90;;;;;;4968954;28;20598;-69
2021/07/06 15:05:36;;;;;;;1.40;1.30;;;24.20;99.90;;;;;;4962616;28;20578;-69
2021/07/06 15:08:03;;;;;;;1.50;1.50;;;24.20;99.90;;;;;;4975140;28;20459;-68
2021/07/06 15:10:30;;;;;;;1.30;1.30;;;24.20;99.90;;;;;;4964596;28;20486;-68
2021/07/06 15:12:59;;;;;;;1.60;1.60;;;24.30;99.90;;;;;;4958192;28;20484;-68
2021/07/06 15:15:27;;;;;;;1.63;1.63;;;24.30;99.90;;;;;;4961415;28;20483;-69
2021/07/06 15:17:54;;;;;;;1.80;1.70;;;24.20;99.90;;;;;;4962579;28;20534;-67
2021/07/06 15:20:22;;;;;;;1.70;1.70;;;24.10;99.90;;;;;;4969632;28;20471;-67
2021/07/06 15:22:50;;;;;;;1.70;1.70;;;24.20;99.90;;;;;;4959000;28;20515;-67
2021/07/06 15:25:17;;;;;;;1.43;1.43;;;24.30;99.90;;;;;;4963719;28;20952;-68
2021/07/06 15:27:45;;;;;;;1.73;1.73;;;24.30;99.90;;;;;;4969493;28;20564;-67
2021/07/06 15:30:13;;;;;;;2.10;1.50;;;24.30;99.90;;;;;;4957792;28;20468;-67
2021/07/06 15:32:40;;;;;;;1.40;1.40;;;24.30;99.90;;;;;;4970640;28;20854;-67
2021/07/06 15:35:08;;;;;;;1.20;1.20;;;24.20;99.90;;;;;;4959439;28;20464;-67
2021/07/06 15:37:36;;;;;;;1.37;1.33;;;24.20;99.90;;;;;;4969452;28;20463;-67
2021/07/06 15:40:05;;;;;;;1.50;1.50;;;24.20;99.90;;;;;;4963996;28;20467;-67
2021/07/06 15:42:33;;;;;;;1.10;1.10;;;24.30;99.90;;;;;;4960829;28;21026;-67
2021/07/06 15:44:59;;;;;;;1.50;1.50;;;24.20;99.90;;;;;;4966213;28;20486;-67
2021/07/06 15:47:26;;;;;;;1.60;1.50;;;24.20;99.90;;;;;;4966390;28;20471;-67
2021/07/06 15:49:53;;;;;;;1.63;1.60;;;24.20;99.90;;;;;;4953559;28;20878;-68
2021/07/06 15:52:19;;;;;;;1.47;1.37;;;24.30;99.90;;;;;;4964744;28;20492;-67
2021/07/06 15:54:46;;;;;;;1.63;1.60;;;24.30;99.90;;;;;;4953399;28;20469;-67
2021/07/06 15:57:14;;;;;;;1.87;1.10;;;24.30;99.90;;;;;;4955305;28;20472;-68
2021/07/06 15:59:41;;;;;;;1.53;1.53;;;24.30;99.90;;;;;;4964155;28;20468;-67
2021/07/06 16:02:08;;;;;;;1.10;1.07;;;24.20;99.90;;;;;;4954766;28;20495;-67
2021/07/06 16:04:35;;;;;;;1.50;1.00;;;24.10;99.90;;;;;;4956183;28;20799;-67
2021/07/06 16:07:02;;;;;;;1.50;1.50;;;24.00;99.90;;;;;;4969980;28;20817;-67
2021/07/06 16:09:28;;;;;;;1.10;1.00;;;23.90;99.90;;;;;;4971022;28;20467;-66
2021/07/06 16:11:55;;;;;;;1.37;1.37;;;23.90;99.90;;;;;;4972041;28;20487;-66
2021/07/06 16:14:23;;;;;;;1.50;1.40;;;23.90;99.90;;;;;;4968890;28;20809;-67
2021/07/06 16:16:50;;;;;;;1.40;1.40;;;23.80;99.90;;;;;;4959645;28;20881;-67
2021/07/06 16:19:16;;;;;;;1.30;1.30;;;23.80;99.90;;;;;;4961700;28;20472;-67
2021/07/06 16:21:43;;;;;;;1.77;1.77;;;23.80;99.90;;;;;;4967591;28;20488;-67
2021/07/06 16:24:12;;;;;;;1.40;1.40;;;23.70;99.90;;;;;;4965228;28;20460;-67
2021/07/06 16:26:39;;;;;;;1.60;1.60;;;23.70;99.90;;;;;;4957357;28;20835;-67
2021/07/06 16:29:05;;;;;;;1.30;1.30;;;23.70;99.90;;;;;;4962709;28;20463;-66
2021/07/06 16:31:33;;;;;;;3.60;1.53;;;23.60;99.90;;;;;;4989718;28;20864;-67
2021/07/06 16:34:00;;;;;;;1.57;1.57;;;23.60;99.90;;;;;;4970259;28;20516;-66
2021/07/06 16:36:27;;;;;;;1.70;1.60;;;23.60;99.90;;;;;;4970303;28;20467;-66
2021/07/06 16:38:53;;;;;;;1.30;1.20;;;23.50;99.90;;;;;;4970070;28;20944;-66
2021/07/06 16:41:22;;;;;;;1.47;1.47;;;23.50;99.90;;;;;;4970941;28;20984;-67
2021/07/06 16:43:49;;;;;;;1.20;1.20;;;23.40;99.90;;;;;;4970609;28;20502;-66
2021/07/06 16:46:16;;;;;;;1.00;1.00;;;23.40;99.90;;;;;;4971625;28;20483;-67
2021/07/06 16:48:44;;;;;;;1.20;1.20;;;23.30;99.90;;;;;;4972126;28;20726;-67
2021/07/06 18:00:12;;;;;;;1.43;1.43;;;22.50;99.90;;;;;;4932864;29;20605;-68
2021/07/06 18:05:23;;;;;;;1.30;1.20;;;22.40;99.90;;;;;;4955282;28;20531;-67
2021/07/06 18:07:49;;;;;;;2.53;1.40;;;22.40;99.90;;;;;;4970628;28;20470;-66